createdAt,value
2017-06-19T00:01:09.493Z,69.10
2017-06-19T00:03:37.796Z,69.50
2017-06-19T00:06:05.277Z,69.40
2017-06-19T00:08:32.763Z,69.60
2017-06-19T00:11:00.257Z,69.70
2017-06-19T00:13:27.735Z,70.00
2017-06-19T00:15:55.972Z,70.40
2017-06-19T00:18:23.540Z,70.40
2017-06-19T00:20:57.604Z,70.40
2017-06-19T00:23:30.727Z,70.30
2017-06-19T00:25:58.236Z,70.50
2017-06-19T00:28:26.516Z,71.00
2017-06-19T00:30:54.058Z,70.60
2017-06-19T00:33:21.601Z,70.90
2017-06-19T00:35:49.844Z,71.40
2017-06-19T00:38:18.120Z,71.30
2017-06-19T00:40:46.388Z,71.30
2017-06-19T00:43:13.864Z,71.20
2017-06-19T00:45:41.576Z,71.40
2017-06-19T00:48:09.115Z,71.80
2017-06-19T00:50:36.660Z,71.70
2017-06-19T00:53:05.196Z,71.70
2017-06-19T00:55:32.769Z,72.00
2017-06-19T00:58:01.036Z,72.40
2017-06-19T01:00:28.511Z,72.40
2017-06-19T01:02:56.019Z,72.60
2017-06-19T01:05:24.280Z,73.10
2017-06-19T01:07:52.519Z,73.30
2017-06-19T01:10:20.757Z,73.00
2017-06-19T01:12:48.337Z,73.00
2017-06-19T01:15:15.884Z,73.10
2017-06-19T01:17:43.366Z,73.30
2017-06-19T01:20:10.880Z,73.30
2017-06-19T01:22:38.359Z,73.70
2017-06-19T01:25:05.850Z,73.60
2017-06-19T01:27:33.425Z,73.20
2017-06-19T01:30:00.924Z,73.50
2017-06-19T01:32:29.202Z,74.30
2017-06-19T01:34:56.950Z,74.00
2017-06-19T01:37:24.491Z,73.90
2017-06-19T01:39:52.036Z,74.10
2017-06-19T01:42:19.576Z,74.20
2017-06-19T01:44:47.116Z,74.60
2017-06-19T01:47:14.671Z,74.50
2017-06-19T01:49:42.180Z,75.00
2017-06-19T01:52:10.478Z,75.00
2017-06-19T01:54:37.960Z,74.90
2017-06-19T01:57:05.447Z,75.20
2017-06-19T01:59:33.004Z,74.80
2017-06-19T02:02:00.478Z,74.70
2017-06-19T02:04:27.948Z,75.10
2017-06-19T02:06:55.524Z,74.70
2017-06-19T02:09:23.055Z,74.80
2017-06-19T02:11:51.328Z,75.30
2017-06-19T02:14:18.872Z,75.30
2017-06-19T02:16:47.109Z,75.70
2017-06-19T02:19:15.352Z,75.00
2017-06-19T02:21:42.891Z,75.60
2017-06-19T02:24:10.408Z,75.40
2017-06-19T02:26:37.921Z,75.50
2017-06-19T02:29:05.450Z,75.50
2017-06-19T02:31:33.735Z,75.70
2017-06-19T02:34:01.216Z,75.60
2017-06-19T02:36:28.756Z,75.60
2017-06-19T02:38:56.227Z,76.20
2017-06-19T02:41:23.796Z,76.40
2017-06-19T02:43:51.341Z,76.60
2017-06-19T02:46:18.813Z,76.70
2017-06-19T02:48:46.424Z,76.60
2017-06-19T02:51:13.901Z,76.80
2017-06-19T02:53:41.389Z,76.70
2017-06-19T02:56:09.683Z,77.10
2017-06-19T02:58:37.242Z,76.10
2017-06-19T03:01:04.772Z,76.30
2017-06-19T03:03:32.303Z,76.30
2017-06-19T03:05:59.781Z,76.60
2017-06-19T03:08:27.388Z,76.80
2017-06-19T03:10:54.901Z,77.10
2017-06-19T03:13:22.472Z,77.30
2017-06-19T03:15:50.020Z,77.20
2017-06-19T03:18:17.664Z,77.40
2017-06-19T03:20:45.208Z,77.40
2017-06-19T03:23:12.692Z,77.60
2017-06-19T03:25:40.211Z,77.80
2017-06-19T03:28:07.748Z,77.90
2017-06-19T03:30:35.288Z,77.80
2017-06-19T03:33:02.824Z,78.10
2017-06-19T03:35:30.368Z,77.80
2017-06-19T03:37:57.840Z,78.10
2017-06-19T03:40:25.457Z,78.00
2017-06-19T03:42:52.996Z,77.80
2017-06-19T03:45:20.545Z,78.10
2017-06-19T03:47:48.065Z,78.00
2017-06-19T03:50:17.062Z,78.20
2017-06-19T03:52:44.561Z,78.10
2017-06-19T03:55:12.129Z,78.20
2017-06-19T03:57:40.382Z,78.50
2017-06-19T04:00:08.776Z,78.50
2017-06-19T04:02:36.259Z,78.40
2017-06-19T04:05:03.766Z,78.40
2017-06-19T04:07:31.509Z,78.50
2017-06-19T04:09:59.037Z,78.60
2017-06-19T04:12:26.516Z,78.70
2017-06-19T04:14:54.028Z,78.50
2017-06-19T04:17:21.577Z,78.80
2017-06-19T04:19:49.121Z,78.80
2017-06-19T04:22:16.660Z,79.00
2017-06-19T04:24:44.208Z,79.00
2017-06-19T04:27:11.720Z,78.70
2017-06-19T04:29:39.213Z,78.90
2017-06-19T04:32:06.708Z,79.00
2017-06-19T04:34:34.983Z,78.80
2017-06-19T04:37:03.248Z,79.20
2017-06-19T04:39:31.720Z,79.40
2017-06-19T04:41:59.297Z,79.30
2017-06-19T04:44:26.772Z,79.20
2017-06-19T04:46:54.347Z,79.20
2017-06-19T04:49:22.612Z,79.20
2017-06-19T04:51:50.157Z,79.10
2017-06-19T04:54:17.696Z,79.20
2017-06-19T04:56:45.176Z,79.50
2017-06-19T04:59:12.708Z,79.10
2017-06-19T05:01:40.246Z,79.10
2017-06-19T05:04:07.748Z,79.10
2017-06-19T05:06:36.000Z,78.90
2017-06-19T05:09:03.516Z,78.80
2017-06-19T05:11:31.116Z,79.40
2017-06-19T05:13:58.600Z,79.30
2017-06-19T05:16:26.205Z,79.20
2017-06-19T05:18:53.684Z,78.80
2017-06-19T05:21:21.188Z,78.80
2017-06-19T05:23:48.936Z,78.60
2017-06-19T05:26:16.476Z,79.10
2017-06-19T05:28:43.966Z,78.70
2017-06-19T05:31:11.457Z,78.20
2017-06-19T05:33:39.012Z,78.20
2017-06-19T05:36:06.496Z,78.30
2017-06-19T05:38:34.197Z,77.70
2017-06-19T05:41:01.673Z,77.00
2017-06-19T05:43:29.165Z,76.40
2017-06-19T05:45:56.689Z,76.20
2017-06-19T05:48:24.777Z,75.90
2017-06-19T05:50:52.263Z,76.80
2017-06-19T05:53:19.771Z,74.90
2017-06-19T05:55:47.305Z,75.90
2017-06-19T05:58:14.802Z,74.10
2017-06-19T06:00:42.317Z,74.40
2017-06-19T06:03:09.945Z,74.30
2017-06-19T06:05:37.431Z,75.00
2017-06-19T06:08:05.055Z,74.20
2017-06-19T06:10:32.548Z,73.60
2017-06-19T06:13:00.801Z,72.10
2017-06-19T06:15:28.296Z,72.10
2017-06-19T06:17:55.917Z,73.40
2017-06-19T06:20:23.464Z,73.50
2017-06-19T06:22:50.948Z,72.20
2017-06-19T06:25:18.649Z,71.10
2017-06-19T06:27:46.329Z,71.20
2017-06-19T06:30:13.820Z,70.40
2017-06-19T06:32:42.108Z,71.50
2017-06-19T06:35:09.602Z,71.40
2017-06-19T06:37:37.110Z,71.10
2017-06-19T06:40:04.733Z,69.80
2017-06-19T06:42:32.277Z,71.10
2017-06-19T06:44:59.820Z,71.10
2017-06-19T06:47:27.561Z,71.40
2017-06-19T06:49:55.034Z,70.60
2017-06-19T06:52:22.553Z,69.00
2017-06-19T06:54:50.297Z,69.10
2017-06-19T06:57:17.840Z,68.00
2017-06-19T06:59:45.380Z,68.10
2017-06-19T07:02:12.884Z,66.90
2017-06-19T07:04:40.379Z,66.10
2017-06-19T07:07:08.885Z,66.00
2017-06-19T07:09:36.369Z,65.90
2017-06-19T07:12:03.848Z,65.60
2017-06-19T07:14:31.352Z,68.00
2017-06-19T07:16:58.932Z,67.90
2017-06-19T07:19:26.404Z,68.30
2017-06-19T07:21:53.912Z,68.10
2017-06-19T07:24:21.455Z,65.80
2017-06-19T07:26:48.996Z,65.50
2017-06-19T07:29:16.555Z,64.80
2017-06-19T07:31:44.101Z,64.10
2017-06-19T07:34:11.634Z,64.10
2017-06-19T07:36:39.147Z,61.30
2017-06-19T07:39:07.396Z,60.60
2017-06-19T07:41:34.912Z,60.70
2017-06-19T07:44:02.420Z,60.20
2017-06-19T07:46:29.956Z,61.40
2017-06-19T07:48:57.504Z,60.30
2017-06-19T07:51:25.969Z,58.70
2017-06-19T07:53:53.508Z,58.80
2017-06-19T07:56:21.761Z,57.80
2017-06-19T07:58:50.000Z,58.20
2017-06-19T08:01:17.577Z,58.10
2017-06-19T08:03:45.217Z,57.90
2017-06-19T08:06:12.695Z,57.00
2017-06-19T08:08:40.169Z,57.30
2017-06-19T08:11:07.684Z,56.70
2017-06-19T08:13:35.189Z,57.40
2017-06-19T08:16:02.736Z,56.20
2017-06-19T08:18:30.272Z,56.50
2017-06-19T08:20:57.753Z,55.00
2017-06-19T08:23:30.902Z,55.50
2017-06-19T08:25:58.381Z,53.60
2017-06-19T08:28:25.852Z,53.70
2017-06-19T08:30:54.137Z,55.00
2017-06-19T08:33:21.629Z,55.00
2017-06-19T08:35:49.129Z,54.10
2017-06-19T08:38:16.632Z,52.20
2017-06-19T08:40:44.213Z,51.80
2017-06-19T08:43:11.712Z,51.50
2017-06-19T08:45:39.292Z,51.10
2017-06-19T08:48:06.840Z,52.30
2017-06-19T08:50:34.385Z,51.50
2017-06-19T08:53:01.872Z,50.40
2017-06-19T08:55:29.380Z,49.30
2017-06-19T08:57:57.221Z,49.10
2017-06-19T09:00:24.709Z,49.60
2017-06-19T09:02:52.187Z,49.40
2017-06-19T09:05:20.532Z,47.40
2017-06-19T09:07:48.036Z,46.70
2017-06-19T09:10:15.522Z,46.90
2017-06-19T09:12:43.112Z,45.90
2017-06-19T09:15:10.726Z,45.00
2017-06-19T09:17:39.012Z,46.50
2017-06-19T09:20:06.505Z,45.90
2017-06-19T09:22:33.978Z,46.00
2017-06-19T09:25:02.261Z,46.00
2017-06-19T09:27:29.795Z,45.90
2017-06-19T09:29:57.337Z,46.70
2017-06-19T09:32:24.881Z,45.00
2017-06-19T09:34:52.524Z,44.70
2017-06-19T09:37:20.890Z,47.40
2017-06-19T09:39:48.373Z,47.40
2017-06-19T09:42:15.857Z,46.40
2017-06-19T09:44:44.155Z,45.20
2017-06-19T09:47:11.692Z,45.20
2017-06-19T09:49:39.184Z,44.80
2017-06-19T09:52:06.668Z,44.10
2017-06-19T09:54:34.145Z,43.60
2017-06-19T09:57:01.748Z,43.70
2017-06-19T09:59:29.293Z,42.90
2017-06-19T10:01:56.831Z,43.20
2017-06-19T10:04:25.300Z,45.20
2017-06-19T10:06:52.855Z,45.20
2017-06-19T10:09:20.395Z,42.70
2017-06-19T10:11:48.136Z,42.60
2017-06-19T10:14:15.683Z,43.20
2017-06-19T10:16:43.249Z,42.80
2017-06-19T10:19:10.765Z,42.90
2017-06-19T10:21:38.245Z,41.40
2017-06-19T10:24:05.822Z,40.60
2017-06-19T10:26:33.392Z,40.20
2017-06-19T10:29:01.661Z,40.90
2017-06-19T10:31:29.161Z,40.90
2017-06-19T10:33:56.646Z,40.50
2017-06-19T10:36:24.154Z,41.10
2017-06-19T10:38:51.728Z,41.10
2017-06-19T10:41:19.199Z,42.40
2017-06-19T10:43:46.717Z,38.30
2017-06-19T10:46:14.216Z,38.00
2017-06-19T10:48:41.748Z,37.60
2017-06-19T10:51:09.273Z,38.20
2017-06-19T10:53:36.748Z,37.80
2017-06-19T10:56:04.352Z,37.60
2017-06-19T10:58:31.877Z,38.20
2017-06-19T11:00:59.411Z,37.30
2017-06-19T11:03:26.961Z,37.60
2017-06-19T11:05:54.504Z,38.20
2017-06-19T11:08:22.044Z,37.70
2017-06-19T11:10:49.593Z,36.60
2017-06-19T11:13:17.141Z,39.20
2017-06-19T11:15:44.696Z,35.80
2017-06-19T11:18:12.330Z,35.00
2017-06-19T11:20:39.816Z,36.70
2017-06-19T11:23:07.411Z,35.00
2017-06-19T11:25:34.956Z,34.50
2017-06-19T11:28:02.498Z,34.30
2017-06-19T11:30:30.244Z,33.70
2017-06-19T11:32:57.790Z,34.40
2017-06-19T11:35:25.336Z,32.50
2017-06-19T11:37:52.872Z,30.10
2017-06-19T11:40:20.352Z,29.00
2017-06-19T11:42:47.841Z,29.10
2017-06-19T11:45:16.129Z,28.20
2017-06-19T11:47:43.655Z,28.10
2017-06-19T11:50:11.925Z,25.90
2017-06-19T11:52:39.409Z,25.80
2017-06-19T11:55:06.912Z,25.20
2017-06-19T11:57:34.400Z,24.60
2017-06-19T12:00:01.873Z,23.50
2017-06-19T12:02:30.151Z,22.60
2017-06-19T12:04:57.704Z,22.10
2017-06-19T12:07:25.237Z,21.80
2017-06-19T12:09:52.768Z,21.60
2017-06-19T12:12:21.018Z,19.50
2017-06-19T12:14:48.590Z,19.40
2017-06-19T12:17:16.149Z,19.60
2017-06-19T12:19:43.652Z,18.70
2017-06-19T12:22:11.959Z,19.40
2017-06-19T12:24:39.476Z,19.30
2017-06-19T12:27:06.957Z,19.10
2017-06-19T12:29:34.440Z,19.30
2017-06-19T12:32:02.808Z,19.30
2017-06-19T12:34:31.056Z,19.50
2017-06-19T12:36:58.620Z,19.00
2017-06-19T12:39:26.164Z,19.60
2017-06-19T12:41:53.648Z,18.40
2017-06-19T12:44:21.129Z,18.70
2017-06-19T12:46:48.692Z,18.50
2017-06-19T12:49:16.187Z,18.80
2017-06-19T12:51:43.716Z,19.30
2017-06-19T12:54:11.214Z,19.10
2017-06-19T12:56:38.801Z,19.30
2017-06-19T12:59:06.416Z,19.00
2017-06-19T13:01:33.957Z,19.20
2017-06-19T13:04:01.500Z,19.30
2017-06-19T13:06:29.016Z,18.40
2017-06-19T13:08:56.529Z,17.80
2017-06-19T13:11:24.070Z,17.30
2017-06-19T13:13:51.564Z,16.10
2017-06-19T13:16:19.066Z,16.00
2017-06-19T13:18:46.553Z,16.40
2017-06-19T13:21:14.057Z,16.50
2017-06-19T13:23:41.558Z,16.30
2017-06-19T13:26:09.142Z,15.20
2017-06-19T13:28:36.876Z,15.40
2017-06-19T13:31:04.429Z,15.70
2017-06-19T13:33:31.904Z,15.40
2017-06-19T13:35:59.429Z,14.80
2017-06-19T13:38:26.906Z,14.60
2017-06-19T13:40:54.380Z,14.90
2017-06-19T13:43:21.936Z,14.40
2017-06-19T13:45:49.471Z,14.90
2017-06-19T13:48:17.016Z,14.70
2017-06-19T13:50:44.656Z,15.00
2017-06-19T13:53:12.128Z,15.00
2017-06-19T13:55:39.606Z,15.30
2017-06-19T13:58:07.116Z,14.70
2017-06-19T14:00:34.589Z,14.20
2017-06-19T14:03:02.069Z,14.10
2017-06-19T14:05:29.560Z,14.90
2017-06-19T14:07:57.033Z,14.20
2017-06-19T14:10:25.304Z,14.50
2017-06-19T14:12:52.781Z,14.50
2017-06-19T14:15:20.296Z,14.70
2017-06-19T14:17:47.841Z,14.90
2017-06-19T14:20:15.315Z,14.70
2017-06-19T14:22:42.824Z,14.50
2017-06-19T14:25:10.369Z,14.40
2017-06-19T14:27:37.904Z,13.80
2017-06-19T14:30:06.148Z,13.90
2017-06-19T14:32:34.431Z,14.20
2017-06-19T14:35:01.913Z,14.10
2017-06-19T14:37:29.433Z,13.20
2017-06-19T14:39:56.952Z,13.40
2017-06-19T14:42:24.507Z,13.50
2017-06-19T14:44:52.049Z,13.70
2017-06-19T14:47:20.299Z,14.30
2017-06-19T14:49:47.771Z,13.70
2017-06-19T14:52:15.286Z,14.00
2017-06-19T14:54:42.764Z,13.60
2017-06-19T14:57:10.237Z,13.50
2017-06-19T14:59:37.816Z,13.80
2017-06-19T15:02:06.113Z,13.60
2017-06-19T15:04:33.599Z,13.90
2017-06-19T15:07:01.201Z,14.20
2017-06-19T15:09:28.676Z,14.30
2017-06-19T15:11:56.176Z,14.50
2017-06-19T15:14:23.724Z,15.00
2017-06-19T15:16:51.269Z,14.80
2017-06-19T15:19:18.808Z,14.70
2017-06-19T15:22:05.129Z,14.10
2017-06-19T15:24:32.845Z,13.80
2017-06-19T15:27:00.377Z,13.90
2017-06-19T15:29:28.631Z,13.40
2017-06-19T15:31:56.880Z,14.10
2017-06-19T15:34:25.164Z,12.90
2017-06-19T15:36:52.641Z,13.20
2017-06-19T15:39:20.147Z,13.30
2017-06-19T15:41:47.688Z,13.00
2017-06-19T15:44:15.233Z,13.50
2017-06-19T15:46:43.505Z,13.60
2017-06-19T15:49:11.044Z,13.60
2017-06-19T15:51:38.524Z,13.80
2017-06-19T15:54:06.012Z,13.80
2017-06-19T15:56:34.280Z,13.50
2017-06-19T15:59:02.529Z,13.30
2017-06-19T16:01:31.228Z,13.20
2017-06-19T16:03:58.708Z,13.00
2017-06-19T16:06:26.184Z,12.80
2017-06-19T16:08:53.768Z,12.60
2017-06-19T16:11:21.246Z,12.30
2017-06-19T16:13:48.721Z,12.50
2017-06-19T16:16:16.211Z,12.20
2017-06-19T16:18:43.684Z,12.10
2017-06-19T16:21:11.161Z,12.30
2017-06-19T16:23:38.657Z,12.30
2017-06-19T16:26:06.154Z,12.40
2017-06-19T16:28:33.674Z,12.70
2017-06-19T16:31:01.922Z,12.60
2017-06-19T16:33:30.173Z,12.30
2017-06-19T16:35:57.676Z,12.20
2017-06-19T16:38:25.160Z,12.80
2017-06-19T16:40:52.640Z,12.90
2017-06-19T16:43:20.146Z,12.30
2017-06-19T16:45:47.620Z,12.60
2017-06-19T16:48:15.865Z,12.80
2017-06-19T16:50:43.348Z,12.80
2017-06-19T16:53:10.948Z,12.70
2017-06-19T16:55:38.420Z,12.90
2017-06-19T16:58:05.939Z,12.60
2017-06-19T17:00:38.219Z,12.80
2017-06-19T17:03:05.756Z,12.70
2017-06-19T17:05:33.244Z,12.60
2017-06-19T17:08:00.733Z,12.30
2017-06-19T17:10:28.204Z,12.00
2017-06-19T17:12:56.460Z,13.10
2017-06-19T17:15:24.706Z,13.30
2017-06-19T17:17:52.201Z,13.20
2017-06-19T17:20:19.680Z,13.20
2017-06-19T17:22:47.166Z,12.70
2017-06-19T17:25:14.699Z,13.40
2017-06-19T17:27:42.192Z,13.00
2017-06-19T17:30:09.764Z,13.80
2017-06-19T17:32:37.485Z,13.80
2017-06-19T17:35:05.051Z,14.20
2017-06-19T17:37:32.573Z,13.80
2017-06-19T17:40:00.060Z,14.30
2017-06-19T17:42:27.547Z,14.30
2017-06-19T17:44:56.023Z,14.80
2017-06-19T17:47:23.560Z,14.80
2017-06-19T17:49:51.108Z,15.30
2017-06-19T17:52:18.643Z,15.60
2017-06-19T17:54:46.892Z,17.30
2017-06-19T17:57:15.173Z,18.10
2017-06-19T17:59:42.668Z,18.00
2017-06-19T18:02:10.175Z,19.30
2017-06-19T18:04:37.724Z,20.00
2017-06-19T18:07:05.223Z,20.80
2017-06-19T18:09:33.480Z,23.20
2017-06-19T18:12:01.868Z,23.00
2017-06-19T18:14:29.408Z,22.80
2017-06-19T18:16:56.893Z,23.50
2017-06-19T18:19:24.380Z,24.40
2017-06-19T18:21:53.833Z,25.80
2017-06-19T18:24:21.424Z,25.80
2017-06-19T18:26:48.977Z,26.30
2017-06-19T18:29:16.460Z,26.50
2017-06-19T18:31:44.020Z,26.50
2017-06-19T18:34:11.509Z,27.30
2017-06-19T18:36:39.296Z,27.30
2017-06-19T18:39:06.845Z,28.00
2017-06-19T18:41:34.329Z,27.90
2017-06-19T18:44:02.025Z,27.80
2017-06-19T18:46:29.568Z,28.50
2017-06-19T18:48:57.056Z,28.80
2017-06-19T18:51:24.649Z,28.60
2017-06-19T18:53:52.128Z,29.30
2017-06-19T18:56:19.602Z,29.90
2017-06-19T18:58:47.096Z,29.50
2017-06-19T19:01:14.620Z,29.50
2017-06-19T19:03:42.109Z,31.10
2017-06-19T19:06:09.739Z,31.40
2017-06-19T19:08:37.236Z,32.20
2017-06-19T19:11:04.720Z,31.80
2017-06-19T19:13:32.241Z,31.50
2017-06-19T19:15:59.816Z,31.40
2017-06-19T19:18:27.356Z,32.70
2017-06-19T19:20:54.900Z,33.10
2017-06-19T19:23:22.384Z,33.40
2017-06-19T19:25:49.985Z,33.30
2017-06-19T19:28:17.524Z,34.00
2017-06-19T19:30:45.016Z,35.30
2017-06-19T19:33:12.704Z,35.40
2017-06-19T19:35:40.200Z,36.20
2017-06-19T19:38:07.740Z,35.40
2017-06-19T19:40:35.229Z,36.20
2017-06-19T19:43:02.746Z,36.10
2017-06-19T19:45:30.285Z,36.70
2017-06-19T19:47:57.767Z,36.20
2017-06-19T19:50:27.477Z,36.50
2017-06-19T19:52:55.183Z,37.10
2017-06-19T19:55:22.710Z,38.30
2017-06-19T19:57:50.360Z,38.00
2017-06-19T20:00:17.960Z,38.00
2017-06-19T20:02:45.674Z,38.20
2017-06-19T20:05:13.205Z,38.70
2017-06-19T20:07:40.738Z,38.80
2017-06-19T20:10:08.246Z,39.30
2017-06-19T20:12:36.492Z,40.20
2017-06-19T20:15:04.009Z,40.20
2017-06-19T20:17:31.534Z,40.70
2017-06-19T20:19:59.065Z,40.90
2017-06-19T20:22:26.620Z,41.10
2017-06-19T20:24:54.135Z,41.00
2017-06-19T20:27:21.823Z,41.30
2017-06-19T20:29:49.305Z,41.60
2017-06-19T20:32:16.785Z,41.60
2017-06-19T20:34:44.404Z,41.80
2017-06-19T20:37:11.941Z,42.20
2017-06-19T20:39:39.429Z,43.00
2017-06-19T20:42:06.916Z,43.30
2017-06-19T20:44:35.393Z,43.60
2017-06-19T20:47:02.963Z,43.60
2017-06-19T20:49:30.473Z,43.60
2017-06-19T20:51:58.174Z,44.20
2017-06-19T20:54:25.656Z,44.70
2017-06-19T20:56:53.192Z,45.70
2017-06-19T20:59:21.460Z,46.00
2017-06-19T21:01:49.700Z,45.90
2017-06-19T21:04:17.177Z,45.90
2017-06-19T21:06:44.709Z,46.20
2017-06-19T21:09:12.188Z,46.30
2017-06-19T21:11:39.665Z,46.20
2017-06-19T21:14:07.215Z,46.20
2017-06-19T21:16:35.496Z,47.60
2017-06-19T21:19:02.980Z,47.60
2017-06-19T21:21:31.105Z,48.00
2017-06-19T21:23:58.643Z,48.70
2017-06-19T21:26:26.136Z,48.60
2017-06-19T21:28:53.644Z,48.80
2017-06-19T21:31:21.120Z,48.80
2017-06-19T21:33:48.601Z,48.90
2017-06-19T21:36:16.892Z,49.30
2017-06-19T21:38:44.416Z,49.30
2017-06-19T21:41:11.904Z,49.50
2017-06-19T21:43:39.411Z,49.80
2017-06-19T21:46:06.887Z,50.20
2017-06-19T21:48:34.384Z,50.80
2017-06-19T21:51:01.931Z,51.10
2017-06-19T21:53:29.415Z,51.50
2017-06-19T21:55:56.929Z,51.60
2017-06-19T21:58:24.419Z,52.40
2017-06-19T22:00:51.897Z,52.30
2017-06-19T22:03:19.380Z,52.30
2017-06-19T22:05:46.857Z,52.30
2017-06-19T22:08:15.244Z,52.40
2017-06-19T22:10:42.720Z,52.40
2017-06-19T22:13:10.217Z,52.70
2017-06-19T22:15:38.499Z,53.30
2017-06-19T22:18:05.972Z,53.30
2017-06-19T22:20:33.447Z,53.30
2017-06-19T22:23:01.785Z,53.10
2017-06-19T22:25:29.268Z,53.00
2017-06-19T22:27:57.518Z,53.60
2017-06-19T22:30:25.788Z,53.80
2017-06-19T22:32:53.284Z,53.70
2017-06-19T22:35:20.781Z,53.90
2017-06-19T22:37:48.352Z,54.30
2017-06-19T22:40:15.834Z,54.60
2017-06-19T22:42:43.332Z,54.80
2017-06-19T22:45:11.605Z,55.00
2017-06-19T22:47:39.088Z,54.90
2017-06-19T22:50:06.692Z,55.10
2017-06-19T22:52:34.168Z,55.20
2017-06-19T22:55:01.777Z,55.30
2017-06-19T22:57:29.252Z,55.70
2017-06-19T22:59:56.761Z,55.90
2017-06-19T23:02:24.305Z,56.20
2017-06-19T23:04:51.779Z,56.30
2017-06-19T23:07:19.264Z,56.80
2017-06-19T23:09:47.550Z,57.00
2017-06-19T23:12:15.047Z,57.00
2017-06-19T23:14:42.536Z,57.10
2017-06-19T23:17:10.105Z,57.50
2017-06-19T23:19:37.584Z,57.70
2017-06-19T23:22:05.063Z,57.90
2017-06-19T23:24:33.449Z,58.30
2017-06-19T23:27:00.988Z,58.30
2017-06-19T23:29:28.541Z,58.70
2017-06-19T23:31:56.056Z,58.80
2017-06-19T23:34:24.291Z,58.90
2017-06-19T23:36:52.697Z,58.90
2017-06-19T23:39:20.240Z,59.10
2017-06-19T23:41:47.992Z,59.10
2017-06-19T23:44:15.564Z,59.30
2017-06-19T23:46:43.053Z,59.70
2017-06-19T23:49:11.442Z,59.90
2017-06-19T23:51:38.920Z,59.90
2017-06-19T23:54:06.396Z,60.20
2017-06-19T23:56:33.968Z,60.50
2017-06-19T23:59:01.509Z,60.80
